« Back
NWS Peachtree City, Ga » Text Product » MCN Terminal Aerodrome Forecast


Printer-friendly Version
Current Version              Previous Versions:   1  2  3  4  5  6  7  8  9  

Terminal Aerodrome Forecast

801
FTUS42 KFFC 300520
TAFMCN
TAF
KMCN 300520Z 3006/3106 07003KT P6SM SCT030 BKN080
     FM301000 09004KT P6SM VCSH SCT008 BKN025
      TEMPO 3010/3014 5SM -SHRA BR BKN008
     FM301800 11008KT P6SM VCSH BKN035 PROB30 3018/3022 5SM TSRA
      BKN025CB
     FM310100 11004KT P6SM SCT025 BKN120=

USA.gov is the U.S. government's official web portal to all federal, state and local government web resources and services.